sensor_id;sensor_type;location;lat;lon;timestamp;temperature;humidity
19152;DHT22;9708;53.114;9.388;2023-03-04T04:47:09;5.60;99.90
19152;DHT22;9708;53.114;9.388;2023-03-04T04:49:36;5.60;99.90
19152;DHT22;9708;53.114;9.388;2023-03-04T04:52:03;5.70;99.90
19152;DHT22;9708;53.114;9.388;2023-03-04T04:54:30;5.80;99.90
19152;DHT22;9708;53.114;9.388;2023-03-04T04:56:57;5.60;99.90
19152;DHT22;9708;53.114;9.388;2023-03-04T04:59:24;5.60;99.90
19152;DHT22;9708;53.114;9.388;2023-03-04T05:01:51;5.60;99.90
19152;DHT22;9708;53.114;9.388;2023-03-04T05:04:19;5.50;99.90
19152;DHT22;9708;53.114;9.388;2023-03-04T05:06:46;5.60;99.90
19152;DHT22;9708;53.114;9.388;2023-03-04T05:09:12;5.70;99.90
19152;DHT22;9708;53.114;9.388;2023-03-04T05:11:39;5.70;99.90
19152;DHT22;9708;53.114;9.388;2023-03-04T05:14:06;5.70;99.90
19152;DHT22;9708;53.114;9.388;2023-03-04T05:16:33;5.70;99.90
19152;DHT22;9708;53.114;9.388;2023-03-04T05:18:59;5.70;99.90
19152;DHT22;9708;53.114;9.388;2023-03-04T05:21:27;5.70;99.90
19152;DHT22;9708;53.114;9.388;2023-03-04T05:23:54;5.60;99.90
19152;DHT22;9708;53.114;9.388;2023-03-04T05:26:21;5.70;99.90
19152;DHT22;9708;53.114;9.388;2023-03-04T05:28:48;5.60;99.90
19152;DHT22;9708;53.114;9.388;2023-03-04T05:31:14;5.70;99.90
19152;DHT22;9708;53.114;9.388;2023-03-04T05:33:42;5.80;99.90
19152;DHT22;9708;53.114;9.388;2023-03-04T05:36:09;5.80;99.90
19152;DHT22;9708;53.114;9.388;2023-03-04T05:38:37;5.80;99.90
19152;DHT22;9708;53.114;9.388;2023-03-04T05:41:05;5.70;99.90
19152;DHT22;9708;53.114;9.388;2023-03-04T05:43:33;5.70;99.90
19152;DHT22;9708;53.114;9.388;2023-03-04T05:46:00;5.90;99.90
19152;DHT22;9708;53.114;9.388;2023-03-04T05:48:27;6.00;99.90
19152;DHT22;9708;53.114;9.388;2023-03-04T05:50:55;5.80;99.90
19152;DHT22;9708;53.114;9.388;2023-03-04T05:53:22;5.80;99.90
19152;DHT22;9708;53.114;9.388;2023-03-04T05:55:50;5.80;99.90
19152;DHT22;9708;53.114;9.388;2023-03-04T05:58:18;5.70;99.90
19152;DHT22;9708;53.114;9.388;2023-03-04T06:00:45;5.60;99.90
19152;DHT22;9708;53.114;9.388;2023-03-04T06:03:14;5.60;99.90
19152;DHT22;9708;53.114;9.388;2023-03-04T06:05:41;5.60;99.90
19152;DHT22;9708;53.114;9.388;2023-03-04T06:08:08;5.60;99.90
19152;DHT22;9708;53.114;9.388;2023-03-04T06:10:35;5.60;99.90
19152;DHT22;9708;53.114;9.388;2023-03-04T06:13:03;5.70;99.90
19152;DHT22;9708;53.114;9.388;2023-03-04T06:15:30;5.60;99.90
19152;DHT22;9708;53.114;9.388;2023-03-04T06:17:56;5.70;99.90
19152;DHT22;9708;53.114;9.388;2023-03-04T06:20:23;5.80;99.90
19152;DHT22;9708;53.114;9.388;2023-03-04T06:22:50;5.90;99.90
19152;DHT22;9708;53.114;9.388;2023-03-04T06:25:17;6.00;99.90
19152;DHT22;9708;53.114;9.388;2023-03-04T06:27:44;6.10;99.90
19152;DHT22;9708;53.114;9.388;2023-03-04T06:30:14;6.10;99.90
19152;DHT22;9708;53.114;9.388;2023-03-04T06:32:41;6.20;99.90
19152;DHT22;9708;53.114;9.388;2023-03-04T06:35:09;6.10;99.90
19152;DHT22;9708;53.114;9.388;2023-03-04T06:37:36;6.00;99.90
19152;DHT22;9708;53.114;9.388;2023-03-04T06:40:04;6.00;99.90
19152;DHT22;9708;53.114;9.388;2023-03-04T06:42:32;6.10;99.90
19152;DHT22;9708;53.114;9.388;2023-03-04T06:44:59;6.00;99.90
19152;DHT22;9708;53.114;9.388;2023-03-04T06:47:27;6.10;99.90
19152;DHT22;9708;53.114;9.388;2023-03-04T06:49:54;6.10;99.90
19152;DHT22;9708;53.114;9.388;2023-03-04T06:52:20;6.10;99.90
19152;DHT22;9708;53.114;9.388;2023-03-04T06:54:47;6.10;99.90
19152;DHT22;9708;53.114;9.388;2023-03-04T06:57:14;6.10;99.90
19152;DHT22;9708;53.114;9.388;2023-03-04T06:59:41;6.10;99.90
19152;DHT22;9708;53.114;9.388;2023-03-04T07:02:10;6.10;99.90
19152;DHT22;9708;53.114;9.388;2023-03-04T07:04:38;6.20;99.90
19152;DHT22;9708;53.114;9.388;2023-03-04T07:07:05;6.20;99.90
19152;DHT22;9708;53.114;9.388;2023-03-04T07:09:32;6.30;99.90
19152;DHT22;9708;53.114;9.388;2023-03-04T07:11:59;6.10;99.90
19152;DHT22;9708;53.114;9.388;2023-03-04T07:14:25;6.10;99.90
19152;DHT22;9708;53.114;9.388;2023-03-04T07:16:52;6.20;99.90
19152;DHT22;9708;53.114;9.388;2023-03-04T07:19:19;6.20;99.90
19152;DHT22;9708;53.114;9.388;2023-03-04T07:21:47;6.10;99.90
19152;DHT22;9708;53.114;9.388;2023-03-04T07:24:14;6.10;99.90
19152;DHT22;9708;53.114;9.388;2023-03-04T07:26:41;6.20;99.90
19152;DHT22;9708;53.114;9.388;2023-03-04T07:29:08;6.20;99.90
19152;DHT22;9708;53.114;9.388;2023-03-04T07:31:34;6.10;99.90
19152;DHT22;9708;53.114;9.388;2023-03-04T07:34:03;6.10;99.90
19152;DHT22;9708;53.114;9.388;2023-03-04T07:36:30;6.30;99.90
19152;DHT22;9708;53.114;9.388;2023-03-04T07:38:59;6.40;99.90
19152;DHT22;9708;53.114;9.388;2023-03-04T07:41:27;6.30;99.90
19152;DHT22;9708;53.114;9.388;2023-03-04T07:43:56;6.40;99.90
19152;DHT22;9708;53.114;9.388;2023-03-04T07:46:23;6.40;99.90
19152;DHT22;9708;53.114;9.388;2023-03-04T07:48:50;6.40;99.90
19152;DHT22;9708;53.114;9.388;2023-03-04T07:51:18;6.50;99.90
19152;DHT22;9708;53.114;9.388;2023-03-04T07:53:47;6.50;99.90
19152;DHT22;9708;53.114;9.388;2023-03-04T07:56:17;6.50;99.90
19152;DHT22;9708;53.114;9.388;2023-03-04T07:58:45;6.50;99.90
19152;DHT22;9708;53.114;9.388;2023-03-04T08:01:13;6.50;99.90
19152;DHT22;9708;53.114;9.388;2023-03-04T08:03:40;6.60;99.90
19152;DHT22;9708;53.114;9.388;2023-03-04T08:06:08;6.70;99.90
19152;DHT22;9708;53.114;9.388;2023-03-04T08:08:35;6.60;99.90
19152;DHT22;9708;53.114;9.388;2023-03-04T08:11:03;6.60;99.90
19152;DHT22;9708;53.114;9.388;2023-03-04T08:13:31;6.60;99.90
19152;DHT22;9708;53.114;9.388;2023-03-04T08:15:58;6.60;99.90
19152;DHT22;9708;53.114;9.388;2023-03-04T08:18:25;6.60;99.90
19152;DHT22;9708;53.114;9.388;2023-03-04T08:20:52;6.70;99.90
19152;DHT22;9708;53.114;9.388;2023-03-04T08:23:19;6.70;99.90
19152;DHT22;9708;53.114;9.388;2023-03-04T08:25:46;6.60;99.90
19152;DHT22;9708;53.114;9.388;2023-03-04T08:28:13;6.80;99.90
19152;DHT22;9708;53.114;9.388;2023-03-04T08:30:41;6.80;99.90
19152;DHT22;9708;53.114;9.388;2023-03-04T08:33:08;6.80;99.90
19152;DHT22;9708;53.114;9.388;2023-03-04T08:35:36;6.70;99.90
19152;DHT22;9708;53.114;9.388;2023-03-04T08:38:04;6.70;99.90
19152;DHT22;9708;53.114;9.388;2023-03-04T08:40:30;6.80;99.90
19152;DHT22;9708;53.114;9.388;2023-03-04T08:42:57;6.90;99.90
19152;DHT22;9708;53.114;9.388;2023-03-04T08:45:24;7.10;99.90
19152;DHT22;9708;53.114;9.388;2023-03-04T08:47:52;7.20;99.90
19152;DHT22;9708;53.114;9.388;2023-03-04T08:50:19;7.10;99.90
19152;DHT22;9708;53.114;9.388;2023-03-04T08:52:47;7.30;99.90
19152;DHT22;9708;53.114;9.388;2023-03-04T08:55:13;7.40;99.90
19152;DHT22;9708;53.114;9.388;2023-03-04T08:57:40;7.30;99.90
19152;DHT22;9708;53.114;9.388;2023-03-04T09:00:08;7.30;99.90
19152;DHT22;9708;53.114;9.388;2023-03-04T09:02:36;7.00;99.90
19152;DHT22;9708;53.114;9.388;2023-03-04T09:05:05;7.00;99.90
19152;DHT22;9708;53.114;9.388;2023-03-04T09:07:32;6.90;99.90
19152;DHT22;9708;53.114;9.388;2023-03-04T09:09:59;7.00;99.90
19152;DHT22;9708;53.114;9.388;2023-03-04T09:12:26;7.00;99.90
19152;DHT22;9708;53.114;9.388;2023-03-04T09:14:52;7.10;99.90
19152;DHT22;9708;53.114;9.388;2023-03-04T09:17:19;7.10;99.90
19152;DHT22;9708;53.114;9.388;2023-03-04T09:19:46;7.00;99.90
19152;DHT22;9708;53.114;9.388;2023-03-04T09:22:14;7.20;99.90
19152;DHT22;9708;53.114;9.388;2023-03-04T09:24:41;7.10;99.90
19152;DHT22;9708;53.114;9.388;2023-03-04T09:27:08;7.20;99.90
19152;DHT22;9708;53.114;9.388;2023-03-04T09:29:34;7.20;99.90
19152;DHT22;9708;53.114;9.388;2023-03-04T09:32:01;7.10;99.90
19152;DHT22;9708;53.114;9.388;2023-03-04T09:34:28;7.10;99.90
19152;DHT22;9708;53.114;9.388;2023-03-04T09:36:55;7.00;99.90
19152;DHT22;9708;53.114;9.388;2023-03-04T09:39:23;7.10;99.90
19152;DHT22;9708;53.114;9.388;2023-03-04T09:41:53;7.10;99.90
19152;DHT22;9708;53.114;9.388;2023-03-04T09:44:25;6.90;99.90
19152;DHT22;9708;53.114;9.388;2023-03-04T09:46:54;7.00;99.90
19152;DHT22;9708;53.114;9.388;2023-03-04T09:49:23;7.10;99.90
19152;DHT22;9708;53.114;9.388;2023-03-04T09:51:54;7.20;99.90
19152;DHT22;9708;53.114;9.388;2023-03-04T09:54:31;7.10;99.90
19152;DHT22;9708;53.114;9.388;2023-03-04T09:57:14;7.10;99.90
19152;DHT22;9708;53.114;9.388;2023-03-04T09:59:48;7.30;99.90
19152;DHT22;9708;53.114;9.388;2023-03-04T10:02:24;7.30;99.90
19152;DHT22;9708;53.114;9.388;2023-03-04T10:04:58;7.50;99.90
19152;DHT22;9708;53.114;9.388;2023-03-04T10:07:27;7.50;99.90
19152;DHT22;9708;53.114;9.388;2023-03-04T10:10:02;7.20;99.90
19152;DHT22;9708;53.114;9.388;2023-03-04T10:12:32;7.20;99.90
19152;DHT22;9708;53.114;9.388;2023-03-04T10:15:02;7.10;99.90
19152;DHT22;9708;53.114;9.388;2023-03-04T10:17:33;7.20;99.90
19152;DHT22;9708;53.114;9.388;2023-03-04T10:20:04;7.20;99.90
19152;DHT22;9708;53.114;9.388;2023-03-04T10:22:35;7.30;99.90
19152;DHT22;9708;53.114;9.388;2023-03-04T10:25:16;7.50;99.90
19152;DHT22;9708;53.114;9.388;2023-03-04T10:27:48;8.10;99.90
19152;DHT22;9708;53.114;9.388;2023-03-04T10:30:22;8.60;99.90
19152;DHT22;9708;53.114;9.388;2023-03-04T10:32:52;9.20;99.90
19152;DHT22;9708;53.114;9.388;2023-03-04T10:35:21;10.00;99.90
19152;DHT22;9708;53.114;9.388;2023-03-04T10:37:49;9.80;99.90
19152;DHT22;9708;53.114;9.388;2023-03-04T10:40:20;9.80;99.90
19152;DHT22;9708;53.114;9.388;2023-03-04T10:42:48;9.60;99.90
19152;DHT22;9708;53.114;9.388;2023-03-04T10:45:20;9.30;99.90
19152;DHT22;9708;53.114;9.388;2023-03-04T10:47:53;9.60;99.90
19152;DHT22;9708;53.114;9.388;2023-03-04T10:50:24;9.50;99.90
19152;DHT22;9708;53.114;9.388;2023-03-04T10:52:53;9.50;99.90
19152;DHT22;9708;53.114;9.388;2023-03-04T10:55:23;9.60;99.90
19152;DHT22;9708;53.114;9.388;2023-03-04T10:57:53;9.60;99.90
19152;DHT22;9708;53.114;9.388;2023-03-04T11:00:25;9.40;99.90
19152;DHT22;9708;53.114;9.388;2023-03-04T11:03:19;8.90;99.90
19152;DHT22;9708;53.114;9.388;2023-03-04T11:05:47;8.80;99.90
19152;DHT22;9708;53.114;9.388;2023-03-04T11:08:16;8.70;99.90
19152;DHT22;9708;53.114;9.388;2023-03-04T11:10:46;8.60;99.90
19152;DHT22;9708;53.114;9.388;2023-03-04T11:13:17;8.70;99.90
19152;DHT22;9708;53.114;9.388;2023-03-04T11:15:49;8.60;99.90
19152;DHT22;9708;53.114;9.388;2023-03-04T11:18:19;8.60;99.90
19152;DHT22;9708;53.114;9.388;2023-03-04T11:20:49;8.80;99.90
19152;DHT22;9708;53.114;9.388;2023-03-04T11:23:18;9.10;99.90
19152;DHT22;9708;53.114;9.388;2023-03-04T11:25:54;9.30;99.90
19152;DHT22;9708;53.114;9.388;2023-03-04T11:28:24;9.40;99.90
19152;DHT22;9708;53.114;9.388;2023-03-04T11:30:55;9.60;99.90
19152;DHT22;9708;53.114;9.388;2023-03-04T11:33:27;9.30;99.90
19152;DHT22;9708;53.114;9.388;2023-03-04T11:36:07;9.30;99.90
19152;DHT22;9708;53.114;9.388;2023-03-04T11:38:38;9.30;99.90
19152;DHT22;9708;53.114;9.388;2023-03-04T11:41:12;9.00;99.90
19152;DHT22;9708;53.114;9.388;2023-03-04T11:43:42;8.80;99.90
19152;DHT22;9708;53.114;9.388;2023-03-04T11:52:27;8.10;99.90
19152;DHT22;9708;53.114;9.388;2023-03-04T11:55:10;8.50;99.90
19152;DHT22;9708;53.114;9.388;2023-03-04T11:57:51;9.20;99.90
19152;DHT22;9708;53.114;9.388;2023-03-04T12:00:31;9.40;99.90
19152;DHT22;9708;53.114;9.388;2023-03-04T12:05:59;10.40;99.90
19152;DHT22;9708;53.114;9.388;2023-03-04T12:08:47;10.20;99.90
19152;DHT22;9708;53.114;9.388;2023-03-04T12:11:24;9.60;99.90
19152;DHT22;9708;53.114;9.388;2023-03-04T12:14:08;9.20;99.90
19152;DHT22;9708;53.114;9.388;2023-03-04T12:20:02;8.60;99.90
19152;DHT22;9708;53.114;9.388;2023-03-04T12:22:37;8.70;99.90
19152;DHT22;9708;53.114;9.388;2023-03-04T12:25:18;8.40;99.90
19152;DHT22;9708;53.114;9.388;2023-03-04T12:27:56;8.10;99.90
19152;DHT22;9708;53.114;9.388;2023-03-04T12:30:49;8.30;99.90
19152;DHT22;9708;53.114;9.388;2023-03-04T12:33:24;8.40;99.90
19152;DHT22;9708;53.114;9.388;2023-03-04T12:35:58;8.40;99.90
19152;DHT22;9708;53.114;9.388;2023-03-04T12:38:40;8.40;99.90
19152;DHT22;9708;53.114;9.388;2023-03-04T12:44:11;8.10;99.90
19152;DHT22;9708;53.114;9.388;2023-03-04T12:46:52;8.80;99.90
19152;DHT22;9708;53.114;9.388;2023-03-04T12:49:39;9.00;99.90
19152;DHT22;9708;53.114;9.388;2023-03-04T12:52:14;9.50;99.90
19152;DHT22;9708;53.114;9.388;2023-03-04T12:54:45;9.60;99.90
19152;DHT22;9708;53.114;9.388;2023-03-04T12:57:13;9.60;99.90
19152;DHT22;9708;53.114;9.388;2023-03-04T12:59:46;9.40;99.90
19152;DHT22;9708;53.114;9.388;2023-03-04T13:02:40;9.10;99.90
19152;DHT22;9708;53.114;9.388;2023-03-04T13:05:24;8.80;99.90
19152;DHT22;9708;53.114;9.388;2023-03-04T13:07:58;8.50;99.90
19152;DHT22;9708;53.114;9.388;2023-03-04T13:10:28;8.40;99.90
19152;DHT22;9708;53.114;9.388;2023-03-04T13:12:56;8.40;99.90
19152;DHT22;9708;53.114;9.388;2023-03-04T13:15:29;8.30;99.90
19152;DHT22;9708;53.114;9.388;2023-03-04T13:18:00;8.30;99.90
19152;DHT22;9708;53.114;9.388;2023-03-04T13:20:36;8.30;99.90
19152;DHT22;9708;53.114;9.388;2023-03-04T13:23:24;8.50;99.90
19152;DHT22;9708;53.114;9.388;2023-03-04T13:31:58;8.20;99.90
19152;DHT22;9708;53.114;9.388;2023-03-04T13:34:47;8.00;99.90
19152;DHT22;9708;53.114;9.388;2023-03-04T13:37:29;7.80;99.90
19152;DHT22;9708;53.114;9.388;2023-03-04T13:40:34;7.80;99.90
19152;DHT22;9708;53.114;9.388;2023-03-04T13:43:35;7.90;99.90
19152;DHT22;9708;53.114;9.388;2023-03-04T13:46:28;7.70;99.90
19152;DHT22;9708;53.114;9.388;2023-03-04T13:49:01;7.70;99.90
19152;DHT22;9708;53.114;9.388;2023-03-04T13:51:31;7.80;99.90
19152;DHT22;9708;53.114;9.388;2023-03-04T13:54:06;8.00;99.90
19152;DHT22;9708;53.114;9.388;2023-03-04T13:56:38;7.90;99.90
19152;DHT22;9708;53.114;9.388;2023-03-04T13:59:28;8.00;99.90
19152;DHT22;9708;53.114;9.388;2023-03-04T14:01:58;8.00;99.90
19152;DHT22;9708;53.114;9.388;2023-03-04T14:04:29;8.00;99.90
19152;DHT22;9708;53.114;9.388;2023-03-04T14:06:59;7.90;99.90
19152;DHT22;9708;53.114;9.388;2023-03-04T14:09:28;7.80;99.90
19152;DHT22;9708;53.114;9.388;2023-03-04T14:11:56;7.50;99.90
19152;DHT22;9708;53.114;9.388;2023-03-04T14:14:26;7.50;99.90
19152;DHT22;9708;53.114;9.388;2023-03-04T14:16:56;7.60;99.90
19152;DHT22;9708;53.114;9.388;2023-03-04T14:19:26;7.70;99.90
19152;DHT22;9708;53.114;9.388;2023-03-04T14:21:54;7.90;99.90
19152;DHT22;9708;53.114;9.388;2023-03-04T14:24:23;7.90;99.90
19152;DHT22;9708;53.114;9.388;2023-03-04T14:27:03;8.00;99.90
19152;DHT22;9708;53.114;9.388;2023-03-04T14:29:30;7.70;99.90
19152;DHT22;9708;53.114;9.388;2023-03-04T14:31:57;7.40;99.90
19152;DHT22;9708;53.114;9.388;2023-03-04T14:34:28;7.30;99.90
19152;DHT22;9708;53.114;9.388;2023-03-04T14:36:56;7.50;99.90
19152;DHT22;9708;53.114;9.388;2023-03-04T14:39:26;7.50;99.90
19152;DHT22;9708;53.114;9.388;2023-03-04T14:41:56;7.40;99.90
19152;DHT22;9708;53.114;9.388;2023-03-04T14:44:29;7.50;99.90
19152;DHT22;9708;53.114;9.388;2023-03-04T14:47:07;7.50;99.90
19152;DHT22;9708;53.114;9.388;2023-03-04T14:49:36;7.40;99.90
19152;DHT22;9708;53.114;9.388;2023-03-04T14:52:03;7.20;99.90
19152;DHT22;9708;53.114;9.388;2023-03-04T14:54:34;7.10;99.90
19152;DHT22;9708;53.114;9.388;2023-03-04T14:57:20;7.30;99.90
19152;DHT22;9708;53.114;9.388;2023-03-04T14:59:48;7.20;99.90
19152;DHT22;9708;53.114;9.388;2023-03-04T15:02:23;7.20;99.90
19152;DHT22;9708;53.114;9.388;2023-03-04T15:04:56;7.30;99.90
19152;DHT22;9708;53.114;9.388;2023-03-04T15:07:29;7.40;99.90
19152;DHT22;9708;53.114;9.388;2023-03-04T15:09:58;7.60;99.90
19152;DHT22;9708;53.114;9.388;2023-03-04T15:12:28;7.80;99.90
19152;DHT22;9708;53.114;9.388;2023-03-04T15:14:57;7.60;99.90
19152;DHT22;9708;53.114;9.388;2023-03-04T15:17:31;7.50;99.90
19152;DHT22;9708;53.114;9.388;2023-03-04T15:20:18;7.40;99.90
19152;DHT22;9708;53.114;9.388;2023-03-04T15:23:04;7.40;99.90
19152;DHT22;9708;53.114;9.388;2023-03-04T15:25:34;7.40;99.90
19152;DHT22;9708;53.114;9.388;2023-03-04T15:28:02;7.20;99.90
19152;DHT22;9708;53.114;9.388;2023-03-04T15:30:30;7.10;99.90
19152;DHT22;9708;53.114;9.388;2023-03-04T15:32:58;7.10;99.90
19152;DHT22;9708;53.114;9.388;2023-03-04T15:35:27;6.90;99.90
19152;DHT22;9708;53.114;9.388;2023-03-04T15:37:55;7.00;99.90
19152;DHT22;9708;53.114;9.388;2023-03-04T15:40:26;6.80;99.90
19152;DHT22;9708;53.114;9.388;2023-03-04T15:42:57;6.80;99.90
19152;DHT22;9708;53.114;9.388;2023-03-04T15:45:26;6.80;99.90
19152;DHT22;9708;53.114;9.388;2023-03-04T15:47:53;6.90;99.90
19152;DHT22;9708;53.114;9.388;2023-03-04T15:50:21;6.70;99.90
19152;DHT22;9708;53.114;9.388;2023-03-04T15:52:53;6.60;99.90
19152;DHT22;9708;53.114;9.388;2023-03-04T15:55:23;6.70;99.90
19152;DHT22;9708;53.114;9.388;2023-03-04T15:57:53;6.50;99.90
19152;DHT22;9708;53.114;9.388;2023-03-04T16:00:22;6.40;99.90
19152;DHT22;9708;53.114;9.388;2023-03-04T16:02:49;6.40;99.90
19152;DHT22;9708;53.114;9.388;2023-03-04T16:05:16;6.40;99.90
19152;DHT22;9708;53.114;9.388;2023-03-04T16:07:44;6.30;99.90
19152;DHT22;9708;53.114;9.388;2023-03-04T16:10:19;6.40;99.90
19152;DHT22;9708;53.114;9.388;2023-03-04T16:12:46;6.30;99.90
19152;DHT22;9708;53.114;9.388;2023-03-04T16:15:14;6.30;99.90
19152;DHT22;9708;53.114;9.388;2023-03-04T16:17:43;6.30;99.90
19152;DHT22;9708;53.114;9.388;2023-03-04T16:20:11;6.30;99.90
19152;DHT22;9708;53.114;9.388;2023-03-04T16:22:39;6.20;99.90
19152;DHT22;9708;53.114;9.388;2023-03-04T16:25:10;6.00;99.90
19152;DHT22;9708;53.114;9.388;2023-03-04T16:27:38;6.00;99.90
19152;DHT22;9708;53.114;9.388;2023-03-04T16:30:06;6.10;99.90
19152;DHT22;9708;53.114;9.388;2023-03-04T16:32:33;6.10;99.90
19152;DHT22;9708;53.114;9.388;2023-03-04T16:35:01;6.00;99.90
19152;DHT22;9708;53.114;9.388;2023-03-04T16:37:28;5.90;99.90
19152;DHT22;9708;53.114;9.388;2023-03-04T16:39:55;5.90;99.90
19152;DHT22;9708;53.114;9.388;2023-03-04T16:42:22;5.80;99.90
19152;DHT22;9708;53.114;9.388;2023-03-04T16:44:50;5.80;99.90
19152;DHT22;9708;53.114;9.388;2023-03-04T16:47:17;5.80;99.90
19152;DHT22;9708;53.114;9.388;2023-03-04T16:49:43;5.90;99.90
19152;DHT22;9708;53.114;9.388;2023-03-04T16:52:21;5.80;99.90
19152;DHT22;9708;53.114;9.388;2023-03-04T16:54:48;5.90;99.90
19152;DHT22;9708;53.114;9.388;2023-03-04T16:57:15;5.80;99.90
19152;DHT22;9708;53.114;9.388;2023-03-04T16:59:42;5.90;99.90
19152;DHT22;9708;53.114;9.388;2023-03-04T17:02:13;5.70;99.90
19152;DHT22;9708;53.114;9.388;2023-03-04T17:04:41;5.70;99.90
19152;DHT22;9708;53.114;9.388;2023-03-04T17:07:08;5.70;99.90
19152;DHT22;9708;53.114;9.388;2023-03-04T17:09:36;5.80;99.90
19152;DHT22;9708;53.114;9.388;2023-03-04T17:12:04;5.70;99.90
19152;DHT22;9708;53.114;9.388;2023-03-04T17:14:30;5.60;99.90
19152;DHT22;9708;53.114;9.388;2023-03-04T17:16:57;5.70;99.90
19152;DHT22;9708;53.114;9.388;2023-03-04T17:19:24;5.80;99.90
19152;DHT22;9708;53.114;9.388;2023-03-04T17:21:51;5.70;99.90
19152;DHT22;9708;53.114;9.388;2023-03-04T17:24:18;5.60;99.90
19152;DHT22;9708;53.114;9.388;2023-03-04T17:26:46;5.70;99.90
19152;DHT22;9708;53.114;9.388;2023-03-04T17:29:13;5.60;99.90
19152;DHT22;9708;53.114;9.388;2023-03-04T17:31:39;5.70;99.90
19152;DHT22;9708;53.114;9.388;2023-03-04T17:34:06;5.60;99.90
19152;DHT22;9708;53.114;9.388;2023-03-04T17:36:33;5.60;99.90
19152;DHT22;9708;53.114;9.388;2023-03-04T17:39:01;5.60;99.90
19152;DHT22;9708;53.114;9.388;2023-03-04T17:41:27;5.60;99.90
19152;DHT22;9708;53.114;9.388;2023-03-04T17:43:56;5.50;99.90
19152;DHT22;9708;53.114;9.388;2023-03-04T17:46:24;5.60;99.90
19152;DHT22;9708;53.114;9.388;2023-03-04T17:48:52;5.50;99.90
19152;DHT22;9708;53.114;9.388;2023-03-04T17:51:20;5.60;99.90
19152;DHT22;9708;53.114;9.388;2023-03-04T17:53:47;5.60;99.90
19152;DHT22;9708;53.114;9.388;2023-03-04T17:56:14;5.60;99.90
19152;DHT22;9708;53.114;9.388;2023-03-04T17:58:41;5.50;99.90
19152;DHT22;9708;53.114;9.388;2023-03-04T18:01:15;5.50;99.90
19152;DHT22;9708;53.114;9.388;2023-03-04T18:03:43;5.50;99.90
19152;DHT22;9708;53.114;9.388;2023-03-04T18:06:10;5.50;99.90
19152;DHT22;9708;53.114;9.388;2023-03-04T18:08:37;5.40;99.90
19152;DHT22;9708;53.114;9.388;2023-03-04T18:11:04;5.40;99.90
19152;DHT22;9708;53.114;9.388;2023-03-04T18:13:31;5.30;99.90
19152;DHT22;9708;53.114;9.388;2023-03-04T18:15:58;5.10;99.90
19152;DHT22;9708;53.114;9.388;2023-03-04T18:18:26;5.20;99.90
19152;DHT22;9708;53.114;9.388;2023-03-04T18:20:56;5.20;99.90
19152;DHT22;9708;53.114;9.388;2023-03-04T18:23:23;5.20;99.90
19152;DHT22;9708;53.114;9.388;2023-03-04T18:25:50;5.10;99.90
19152;DHT22;9708;53.114;9.388;2023-03-04T18:28:17;5.20;99.90
19152;DHT22;9708;53.114;9.388;2023-03-04T18:30:44;5.20;99.90
19152;DHT22;9708;53.114;9.388;2023-03-04T18:33:10;5.20;99.90
19152;DHT22;9708;53.114;9.388;2023-03-04T18:35:39;5.20;99.90
19152;DHT22;9708;53.114;9.388;2023-03-04T18:38:05;5.20;99.90
19152;DHT22;9708;53.114;9.388;2023-03-04T18:40:32;5.20;99.90
19152;DHT22;9708;53.114;9.388;2023-03-04T18:42:59;5.20;99.90
19152;DHT22;9708;53.114;9.388;2023-03-04T18:45:27;5.40;99.90
19152;DHT22;9708;53.114;9.388;2023-03-04T18:47:54;5.30;99.90
19152;DHT22;9708;53.114;9.388;2023-03-04T18:50:21;5.40;99.90
19152;DHT22;9708;53.114;9.388;2023-03-04T18:52:49;5.40;99.90
19152;DHT22;9708;53.114;9.388;2023-03-04T18:55:17;5.30;99.90
19152;DHT22;9708;53.114;9.388;2023-03-04T18:57:46;5.20;99.90
19152;DHT22;9708;53.114;9.388;2023-03-04T19:00:17;5.30;99.90
19152;DHT22;9708;53.114;9.388;2023-03-04T19:02:46;5.20;99.90
19152;DHT22;9708;53.114;9.388;2023-03-04T19:05:17;5.20;99.90
19152;DHT22;9708;53.114;9.388;2023-03-04T19:07:44;5.40;99.90
19152;DHT22;9708;53.114;9.388;2023-03-04T19:10:12;5.40;99.90
19152;DHT22;9708;53.114;9.388;2023-03-04T19:12:39;5.30;99.90
19152;DHT22;9708;53.114;9.388;2023-03-04T19:15:07;5.20;99.90
19152;DHT22;9708;53.114;9.388;2023-03-04T19:17:36;5.30;99.90
19152;DHT22;9708;53.114;9.388;2023-03-04T19:20:05;5.40;99.90
19152;DHT22;9708;53.114;9.388;2023-03-04T19:22:32;5.30;99.90
19152;DHT22;9708;53.114;9.388;2023-03-04T19:24:59;5.20;99.90
19152;DHT22;9708;53.114;9.388;2023-03-04T19:27:27;5.20;99.90
19152;DHT22;9708;53.114;9.388;2023-03-04T19:29:53;5.20;99.90
19152;DHT22;9708;53.114;9.388;2023-03-04T19:32:20;5.30;99.90
19152;DHT22;9708;53.114;9.388;2023-03-04T19:34:48;5.40;99.90
19152;DHT22;9708;53.114;9.388;2023-03-04T19:37:15;5.30;99.90
19152;DHT22;9708;53.114;9.388;2023-03-04T19:39:42;5.10;99.90
19152;DHT22;9708;53.114;9.388;2023-03-04T19:42:09;5.10;99.90
19152;DHT22;9708;53.114;9.388;2023-03-04T19:44:38;5.10;99.90
19152;DHT22;9708;53.114;9.388;2023-03-04T19:47:05;5.30;99.90
19152;DHT22;9708;53.114;9.388;2023-03-04T19:49:32;5.20;99.90
19152;DHT22;9708;53.114;9.388;2023-03-04T19:52:00;5.10;99.90
19152;DHT22;9708;53.114;9.388;2023-03-04T19:54:26;5.10;99.90
19152;DHT22;9708;53.114;9.388;2023-03-04T19:56:53;5.00;99.90
19152;DHT22;9708;53.114;9.388;2023-03-04T19:59:20;5.10;99.90
19152;DHT22;9708;53.114;9.388;2023-03-04T20:01:48;5.20;99.90
19152;DHT22;9708;53.114;9.388;2023-03-04T20:04:17;5.20;99.90
19152;DHT22;9708;53.114;9.388;2023-03-04T20:06:47;5.30;99.90
19152;DHT22;9708;53.114;9.388;2023-03-04T20:09:15;5.50;99.90
19152;DHT22;9708;53.114;9.388;2023-03-04T20:11:42;5.30;99.90
19152;DHT22;9708;53.114;9.388;2023-03-04T20:14:09;5.10;99.90
19152;DHT22;9708;53.114;9.388;2023-03-04T20:16:36;5.10;99.90
19152;DHT22;9708;53.114;9.388;2023-03-04T20:19:04;5.20;99.90
19152;DHT22;9708;53.114;9.388;2023-03-04T20:21:32;5.30;99.90
19152;DHT22;9708;53.114;9.388;2023-03-04T20:23:59;5.10;99.90
19152;DHT22;9708;53.114;9.388;2023-03-04T20:26:27;5.20;99.90
19152;DHT22;9708;53.114;9.388;2023-03-04T20:28:54;5.10;99.90
19152;DHT22;9708;53.114;9.388;2023-03-04T20:31:23;4.90;99.90
19152;DHT22;9708;53.114;9.388;2023-03-04T20:33:52;5.00;99.90
19152;DHT22;9708;53.114;9.388;2023-03-04T20:36:22;5.10;99.90
19152;DHT22;9708;53.114;9.388;2023-03-04T20:38:49;5.20;99.90
19152;DHT22;9708;53.114;9.388;2023-03-04T20:41:17;5.20;99.90
19152;DHT22;9708;53.114;9.388;2023-03-04T20:43:44;5.20;99.90
19152;DHT22;9708;53.114;9.388;2023-03-04T20:46:24;5.00;99.90
19152;DHT22;9708;53.114;9.388;2023-03-04T20:48:51;5.00;99.90
19152;DHT22;9708;53.114;9.388;2023-03-04T20:51:20;4.80;99.90
19152;DHT22;9708;53.114;9.388;2023-03-04T20:53:47;4.80;99.90
19152;DHT22;9708;53.114;9.388;2023-03-04T20:56:15;4.90;99.90
19152;DHT22;9708;53.114;9.388;2023-03-04T20:58:42;4.70;99.90
19152;DHT22;9708;53.114;9.388;2023-03-04T21:01:10;4.80;99.90
19152;DHT22;9708;53.114;9.388;2023-03-04T21:03:37;4.80;99.90
19152;DHT22;9708;53.114;9.388;2023-03-04T21:06:08;4.60;99.90
19152;DHT22;9708;53.114;9.388;2023-03-04T21:08:37;4.50;99.90
19152;DHT22;9708;53.114;9.388;2023-03-04T21:11:04;4.40;99.90
19152;DHT22;9708;53.114;9.388;2023-03-04T21:13:30;4.40;99.90
19152;DHT22;9708;53.114;9.388;2023-03-04T21:16:01;4.30;99.90
19152;DHT22;9708;53.114;9.388;2023-03-04T21:18:28;4.30;99.90
19152;DHT22;9708;53.114;9.388;2023-03-04T21:20:55;4.30;99.90
19152;DHT22;9708;53.114;9.388;2023-03-04T21:23:22;4.30;99.90
19152;DHT22;9708;53.114;9.388;2023-03-04T21:25:50;4.40;99.90